Terminal Aerodrome Forecast
Issued by NWS

Home | Current Version | Previous Version | Text Only | Print | Product List | Glossary On
Versions: 1 2 3 4 5 6 7 8 9 10 11 12 13 14 15 16 17 18 19 20 21
000
FTAK31 PAJN 261700
TAFAYA
TAF
PAYA 261736Z 2618/2718 09006KT 6SM -RA SCT035 OVC060
      TEMPO 2618/2622 2SM SHRA BR FEW006 BKN025 OVC035
     FM270000 11005KT 5SM -RA BR SCT025 OVC035
     FM270900 11005KT 6SM -RA BR OVC030
     FM271600 11007KT 5SM -RA BR OVC025
      AMD LTD TO CLD VIS AND WIND 2701/2710=

USA.gov is the U.S. government's official web portal to all federal, state and local government web resources and services.